sensor_id;sensor_type;location;lat;lon;timestamp;temperature;humidity
58413;DHT22;44209;52.952;6.790;2023-08-01T00:00:50;16.70;99.90
58413;DHT22;44209;52.952;6.790;2023-08-01T00:03:15;16.70;99.90
58413;DHT22;44209;52.952;6.790;2023-08-01T00:05:41;16.60;99.90
58413;DHT22;44209;52.952;6.790;2023-08-01T00:08:14;16.60;99.90
58413;DHT22;44209;52.952;6.790;2023-08-01T00:10:40;16.60;99.90
58413;DHT22;44209;52.952;6.790;2023-08-01T00:13:07;16.60;99.90
58413;DHT22;44209;52.952;6.790;2023-08-01T00:15:33;16.60;99.90
58413;DHT22;44209;52.952;6.790;2023-08-01T00:17:59;16.60;99.90
58413;DHT22;44209;52.952;6.790;2023-08-01T00:20:24;16.50;99.90
58413;DHT22;44209;52.952;6.790;2023-08-01T00:22:50;16.50;99.90
58413;DHT22;44209;52.952;6.790;2023-08-01T00:25:17;16.50;99.90
58413;DHT22;44209;52.952;6.790;2023-08-01T00:27:43;16.50;99.90
58413;DHT22;44209;52.952;6.790;2023-08-01T00:30:09;16.50;99.90
58413;DHT22;44209;52.952;6.790;2023-08-01T00:32:35;16.50;99.90
58413;DHT22;44209;52.952;6.790;2023-08-01T00:35:01;16.50;99.90
58413;DHT22;44209;52.952;6.790;2023-08-01T00:37:27;16.40;99.90
58413;DHT22;44209;52.952;6.790;2023-08-01T00:39:52;16.40;99.90
58413;DHT22;44209;52.952;6.790;2023-08-01T00:42:18;16.40;99.90
58413;DHT22;44209;52.952;6.790;2023-08-01T00:44:44;16.40;99.90
58413;DHT22;44209;52.952;6.790;2023-08-01T00:47:10;16.40;99.90
58413;DHT22;44209;52.952;6.790;2023-08-01T00:49:36;16.40;99.90
58413;DHT22;44209;52.952;6.790;2023-08-01T00:52:02;16.40;99.90
58413;DHT22;44209;52.952;6.790;2023-08-01T00:54:28;16.40;99.90
58413;DHT22;44209;52.952;6.790;2023-08-01T00:57:00;16.40;99.90
58413;DHT22;44209;52.952;6.790;2023-08-01T00:59:26;16.40;99.90
58413;DHT22;44209;52.952;6.790;2023-08-01T01:01:51;16.40;99.90
58413;DHT22;44209;52.952;6.790;2023-08-01T01:04:17;16.40;99.90
58413;DHT22;44209;52.952;6.790;2023-08-01T01:07:06;16.30;99.90
58413;DHT22;44209;52.952;6.790;2023-08-01T01:09:31;16.40;99.90
58413;DHT22;44209;52.952;6.790;2023-08-01T01:11:58;16.40;99.90
58413;DHT22;44209;52.952;6.790;2023-08-01T01:14:26;16.30;99.90
58413;DHT22;44209;52.952;6.790;2023-08-01T01:16:51;16.30;99.90
58413;DHT22;44209;52.952;6.790;2023-08-01T01:19:17;16.30;99.90
58413;DHT22;44209;52.952;6.790;2023-08-01T01:21:44;16.30;99.90
58413;DHT22;44209;52.952;6.790;2023-08-01T01:24:11;16.20;99.90
58413;DHT22;44209;52.952;6.790;2023-08-01T01:26:40;16.20;99.90
58413;DHT22;44209;52.952;6.790;2023-08-01T01:29:07;16.10;99.90
58413;DHT22;44209;52.952;6.790;2023-08-01T01:31:34;16.10;99.90
58413;DHT22;44209;52.952;6.790;2023-08-01T01:34:01;16.00;99.90
58413;DHT22;44209;52.952;6.790;2023-08-01T01:36:27;16.00;99.90
58413;DHT22;44209;52.952;6.790;2023-08-01T01:38:53;15.90;99.90
58413;DHT22;44209;52.952;6.790;2023-08-01T01:41:18;15.90;99.90
58413;DHT22;44209;52.952;6.790;2023-08-01T01:43:44;15.80;99.90
58413;DHT22;44209;52.952;6.790;2023-08-01T01:46:10;15.80;99.90
58413;DHT22;44209;52.952;6.790;2023-08-01T01:48:35;15.70;99.90
58413;DHT22;44209;52.952;6.790;2023-08-01T01:51:01;15.70;99.90
58413;DHT22;44209;52.952;6.790;2023-08-01T01:53:27;15.60;99.90
58413;DHT22;44209;52.952;6.790;2023-08-01T01:55:53;15.60;99.90
58413;DHT22;44209;52.952;6.790;2023-08-01T01:58:18;15.60;99.90
58413;DHT22;44209;52.952;6.790;2023-08-01T02:00:44;15.60;99.90
58413;DHT22;44209;52.952;6.790;2023-08-01T02:03:10;15.60;99.90
58413;DHT22;44209;52.952;6.790;2023-08-01T02:05:36;15.70;99.90
58413;DHT22;44209;52.952;6.790;2023-08-01T02:08:02;15.60;99.90
58413;DHT22;44209;52.952;6.790;2023-08-01T02:10:30;15.60;99.90
58413;DHT22;44209;52.952;6.790;2023-08-01T02:12:56;15.70;99.90
58413;DHT22;44209;52.952;6.790;2023-08-01T02:15:22;15.70;99.90
58413;DHT22;44209;52.952;6.790;2023-08-01T02:17:47;15.70;99.90
58413;DHT22;44209;52.952;6.790;2023-08-01T02:20:13;15.70;99.90
58413;DHT22;44209;52.952;6.790;2023-08-01T02:22:39;15.70;99.90
58413;DHT22;44209;52.952;6.790;2023-08-01T02:25:05;15.80;99.90
58413;DHT22;44209;52.952;6.790;2023-08-01T02:27:30;15.90;99.90
58413;DHT22;44209;52.952;6.790;2023-08-01T02:29:56;15.90;99.90
58413;DHT22;44209;52.952;6.790;2023-08-01T02:32:22;15.90;99.90
58413;DHT22;44209;52.952;6.790;2023-08-01T02:34:48;15.90;99.90
58413;DHT22;44209;52.952;6.790;2023-08-01T02:37:13;15.90;99.90
58413;DHT22;44209;52.952;6.790;2023-08-01T02:39:39;15.90;99.90
58413;DHT22;44209;52.952;6.790;2023-08-01T02:42:05;15.90;99.90
58413;DHT22;44209;52.952;6.790;2023-08-01T02:44:31;15.90;99.90
58413;DHT22;44209;52.952;6.790;2023-08-01T02:46:56;15.80;99.90
58413;DHT22;44209;52.952;6.790;2023-08-01T02:49:22;15.80;99.90
58413;DHT22;44209;52.952;6.790;2023-08-01T02:51:48;15.80;99.90
58413;DHT22;44209;52.952;6.790;2023-08-01T02:54:13;15.80;99.90
58413;DHT22;44209;52.952;6.790;2023-08-01T02:56:39;15.80;99.90
58413;DHT22;44209;52.952;6.790;2023-08-01T02:59:07;15.80;99.90
58413;DHT22;44209;52.952;6.790;2023-08-01T03:01:35;15.80;99.90
58413;DHT22;44209;52.952;6.790;2023-08-01T03:04:05;15.70;99.90
58413;DHT22;44209;52.952;6.790;2023-08-01T03:06:32;15.80;99.90
58413;DHT22;44209;52.952;6.790;2023-08-01T03:08:58;15.70;99.90
58413;DHT22;44209;52.952;6.790;2023-08-01T03:11:24;15.70;99.90
58413;DHT22;44209;52.952;6.790;2023-08-01T03:13:50;15.70;99.90
58413;DHT22;44209;52.952;6.790;2023-08-01T03:16:17;15.70;99.90
58413;DHT22;44209;52.952;6.790;2023-08-01T03:18:42;15.70;99.90
58413;DHT22;44209;52.952;6.790;2023-08-01T03:21:08;15.70;99.90
58413;DHT22;44209;52.952;6.790;2023-08-01T03:23:34;15.70;99.90
58413;DHT22;44209;52.952;6.790;2023-08-01T03:26:00;15.70;99.90
58413;DHT22;44209;52.952;6.790;2023-08-01T03:28:26;15.70;99.90
58413;DHT22;44209;52.952;6.790;2023-08-01T03:30:52;15.70;99.90
58413;DHT22;44209;52.952;6.790;2023-08-01T03:33:19;15.70;99.90
58413;DHT22;44209;52.952;6.790;2023-08-01T03:35:45;15.70;99.90
58413;DHT22;44209;52.952;6.790;2023-08-01T03:38:11;15.70;99.90
58413;DHT22;44209;52.952;6.790;2023-08-01T03:40:36;15.70;99.90
58413;DHT22;44209;52.952;6.790;2023-08-01T03:43:02;15.70;99.90
58413;DHT22;44209;52.952;6.790;2023-08-01T03:45:28;15.70;99.90
58413;DHT22;44209;52.952;6.790;2023-08-01T03:47:53;15.70;99.90
58413;DHT22;44209;52.952;6.790;2023-08-01T03:50:19;15.70;99.90
58413;DHT22;44209;52.952;6.790;2023-08-01T03:52:45;15.70;99.90
58413;DHT22;44209;52.952;6.790;2023-08-01T03:55:11;15.70;99.90
58413;DHT22;44209;52.952;6.790;2023-08-01T03:57:37;15.70;99.90
58413;DHT22;44209;52.952;6.790;2023-08-01T04:00:08;15.60;99.90
58413;DHT22;44209;52.952;6.790;2023-08-01T04:02:41;15.70;99.90
58413;DHT22;44209;52.952;6.790;2023-08-01T04:05:08;15.60;99.90
58413;DHT22;44209;52.952;6.790;2023-08-01T04:07:37;15.60;99.90
58413;DHT22;44209;52.952;6.790;2023-08-01T04:10:04;15.60;99.90
58413;DHT22;44209;52.952;6.790;2023-08-01T04:12:31;15.60;99.90
58413;DHT22;44209;52.952;6.790;2023-08-01T04:14:57;15.60;99.90
58413;DHT22;44209;52.952;6.790;2023-08-01T04:17:23;15.60;99.90
58413;DHT22;44209;52.952;6.790;2023-08-01T04:19:49;15.50;99.90
58413;DHT22;44209;52.952;6.790;2023-08-01T04:22:14;15.50;99.90
58413;DHT22;44209;52.952;6.790;2023-08-01T04:24:40;15.50;99.90
58413;DHT22;44209;52.952;6.790;2023-08-01T04:27:06;15.50;99.90
58413;DHT22;44209;52.952;6.790;2023-08-01T04:29:31;15.50;99.90
58413;DHT22;44209;52.952;6.790;2023-08-01T04:31:57;15.50;99.90
58413;DHT22;44209;52.952;6.790;2023-08-01T04:34:23;15.40;99.90
58413;DHT22;44209;52.952;6.790;2023-08-01T04:36:48;15.40;99.90
58413;DHT22;44209;52.952;6.790;2023-08-01T04:39:14;15.40;99.90
58413;DHT22;44209;52.952;6.790;2023-08-01T04:41:40;15.40;99.90
58413;DHT22;44209;52.952;6.790;2023-08-01T04:44:06;15.40;99.90
58413;DHT22;44209;52.952;6.790;2023-08-01T04:46:32;15.30;99.90
58413;DHT22;44209;52.952;6.790;2023-08-01T04:48:58;15.30;99.90
58413;DHT22;44209;52.952;6.790;2023-08-01T04:51:24;15.30;99.90
58413;DHT22;44209;52.952;6.790;2023-08-01T04:53:50;15.30;99.90
58413;DHT22;44209;52.952;6.790;2023-08-01T04:56:16;15.30;99.90
58413;DHT22;44209;52.952;6.790;2023-08-01T04:58:42;15.20;99.90
58413;DHT22;44209;52.952;6.790;2023-08-01T05:01:08;15.20;99.90
58413;DHT22;44209;52.952;6.790;2023-08-01T05:03:34;15.20;99.90
58413;DHT22;44209;52.952;6.790;2023-08-01T05:05:59;15.20;99.90
58413;DHT22;44209;52.952;6.790;2023-08-01T05:08:25;15.20;99.90
58413;DHT22;44209;52.952;6.790;2023-08-01T05:10:51;15.20;99.90
58413;DHT22;44209;52.952;6.790;2023-08-01T05:13:17;15.20;99.90
58413;DHT22;44209;52.952;6.790;2023-08-01T05:15:46;15.20;99.90
58413;DHT22;44209;52.952;6.790;2023-08-01T05:18:16;15.20;99.90
58413;DHT22;44209;52.952;6.790;2023-08-01T05:20:42;15.20;99.90
58413;DHT22;44209;52.952;6.790;2023-08-01T05:23:08;15.20;99.90
58413;DHT22;44209;52.952;6.790;2023-08-01T05:25:34;15.20;99.90
58413;DHT22;44209;52.952;6.790;2023-08-01T05:28:00;15.30;99.90
58413;DHT22;44209;52.952;6.790;2023-08-01T05:30:25;15.30;99.90
58413;DHT22;44209;52.952;6.790;2023-08-01T05:32:51;15.30;99.90
58413;DHT22;44209;52.952;6.790;2023-08-01T05:35:17;15.30;99.90
58413;DHT22;44209;52.952;6.790;2023-08-01T05:37:43;15.30;99.90
58413;DHT22;44209;52.952;6.790;2023-08-01T05:40:09;15.30;99.90
58413;DHT22;44209;52.952;6.790;2023-08-01T05:42:35;15.30;99.90
58413;DHT22;44209;52.952;6.790;2023-08-01T05:45:01;15.40;99.90
58413;DHT22;44209;52.952;6.790;2023-08-01T05:47:26;15.50;99.90
58413;DHT22;44209;52.952;6.790;2023-08-01T05:49:52;15.60;99.90
58413;DHT22;44209;52.952;6.790;2023-08-01T05:52:18;15.70;99.90
58413;DHT22;44209;52.952;6.790;2023-08-01T05:54:43;15.80;99.90
58413;DHT22;44209;52.952;6.790;2023-08-01T05:57:10;15.80;99.90
58413;DHT22;44209;52.952;6.790;2023-08-01T05:59:36;15.80;99.90
58413;DHT22;44209;52.952;6.790;2023-08-01T06:02:02;15.80;99.90
58413;DHT22;44209;52.952;6.790;2023-08-01T06:04:28;15.80;99.90
58413;DHT22;44209;52.952;6.790;2023-08-01T06:06:54;15.80;99.90
58413;DHT22;44209;52.952;6.790;2023-08-01T06:09:20;15.80;99.90
58413;DHT22;44209;52.952;6.790;2023-08-01T06:11:46;15.70;99.90
58413;DHT22;44209;52.952;6.790;2023-08-01T06:14:11;15.70;99.90
58413;DHT22;44209;52.952;6.790;2023-08-01T06:16:37;15.70;99.90
58413;DHT22;44209;52.952;6.790;2023-08-01T06:19:03;15.80;99.90
58413;DHT22;44209;52.952;6.790;2023-08-01T06:21:29;15.90;99.90
58413;DHT22;44209;52.952;6.790;2023-08-01T06:23:55;16.10;99.90
58413;DHT22;44209;52.952;6.790;2023-08-01T06:26:20;16.10;99.90
58413;DHT22;44209;52.952;6.790;2023-08-01T06:28:46;16.20;99.90
58413;DHT22;44209;52.952;6.790;2023-08-01T06:31:12;16.20;99.90
58413;DHT22;44209;52.952;6.790;2023-08-01T06:33:38;16.20;99.90
58413;DHT22;44209;52.952;6.790;2023-08-01T06:36:04;16.20;99.90
58413;DHT22;44209;52.952;6.790;2023-08-01T06:38:30;16.10;99.90
58413;DHT22;44209;52.952;6.790;2023-08-01T06:40:56;16.10;99.90
58413;DHT22;44209;52.952;6.790;2023-08-01T06:43:21;16.00;99.90
58413;DHT22;44209;52.952;6.790;2023-08-01T06:45:50;16.00;99.90
58413;DHT22;44209;52.952;6.790;2023-08-01T06:48:15;16.00;99.90
58413;DHT22;44209;52.952;6.790;2023-08-01T06:50:41;16.00;99.90
58413;DHT22;44209;52.952;6.790;2023-08-01T06:53:07;16.00;99.90
58413;DHT22;44209;52.952;6.790;2023-08-01T06:55:34;16.00;99.90
58413;DHT22;44209;52.952;6.790;2023-08-01T06:57:59;16.00;99.90
58413;DHT22;44209;52.952;6.790;2023-08-01T07:00:25;16.00;99.90
58413;DHT22;44209;52.952;6.790;2023-08-01T07:02:51;16.00;99.90
58413;DHT22;44209;52.952;6.790;2023-08-01T07:05:16;16.00;99.90
58413;DHT22;44209;52.952;6.790;2023-08-01T07:07:42;16.10;99.90
58413;DHT22;44209;52.952;6.790;2023-08-01T07:10:08;16.10;99.90
58413;DHT22;44209;52.952;6.790;2023-08-01T07:12:34;16.10;99.90
58413;DHT22;44209;52.952;6.790;2023-08-01T07:15:00;16.20;99.90
58413;DHT22;44209;52.952;6.790;2023-08-01T07:17:25;16.20;99.90
58413;DHT22;44209;52.952;6.790;2023-08-01T07:19:51;16.20;99.90
58413;DHT22;44209;52.952;6.790;2023-08-01T07:22:17;16.30;99.90
58413;DHT22;44209;52.952;6.790;2023-08-01T07:24:42;16.40;99.90
58413;DHT22;44209;52.952;6.790;2023-08-01T07:27:08;16.70;99.90
58413;DHT22;44209;52.952;6.790;2023-08-01T07:29:34;16.80;99.90
58413;DHT22;44209;52.952;6.790;2023-08-01T07:31:59;16.90;99.90
58413;DHT22;44209;52.952;6.790;2023-08-01T07:34:25;16.80;99.90
58413;DHT22;44209;52.952;6.790;2023-08-01T07:36:51;16.80;99.90
58413;DHT22;44209;52.952;6.790;2023-08-01T07:39:17;16.80;99.90
58413;DHT22;44209;52.952;6.790;2023-08-01T07:41:42;16.80;99.90
58413;DHT22;44209;52.952;6.790;2023-08-01T07:44:08;16.80;99.90
58413;DHT22;44209;52.952;6.790;2023-08-01T07:46:34;16.80;99.90
58413;DHT22;44209;52.952;6.790;2023-08-01T07:48:59;16.80;99.90
58413;DHT22;44209;52.952;6.790;2023-08-01T07:51:26;16.70;99.90
58413;DHT22;44209;52.952;6.790;2023-08-01T07:53:54;16.60;99.90
58413;DHT22;44209;52.952;6.790;2023-08-01T07:56:20;16.60;99.90
58413;DHT22;44209;52.952;6.790;2023-08-01T07:58:46;16.50;99.90
58413;DHT22;44209;52.952;6.790;2023-08-01T08:01:11;16.50;99.90
58413;DHT22;44209;52.952;6.790;2023-08-01T08:03:37;16.50;99.90
58413;DHT22;44209;52.952;6.790;2023-08-01T08:06:03;16.50;99.90
58413;DHT22;44209;52.952;6.790;2023-08-01T08:08:30;16.50;99.90
58413;DHT22;44209;52.952;6.790;2023-08-01T08:10:55;16.50;99.90
58413;DHT22;44209;52.952;6.790;2023-08-01T08:13:22;16.40;99.90
58413;DHT22;44209;52.952;6.790;2023-08-01T08:15:47;16.40;99.90
58413;DHT22;44209;52.952;6.790;2023-08-01T08:18:13;16.40;99.90
58413;DHT22;44209;52.952;6.790;2023-08-01T08:20:44;16.40;99.90
58413;DHT22;44209;52.952;6.790;2023-08-01T08:23:10;16.30;99.90
58413;DHT22;44209;52.952;6.790;2023-08-01T08:25:36;16.30;99.90
58413;DHT22;44209;52.952;6.790;2023-08-01T08:28:02;16.30;99.90
58413;DHT22;44209;52.952;6.790;2023-08-01T08:30:28;16.30;99.90
58413;DHT22;44209;52.952;6.790;2023-08-01T08:32:54;16.30;99.90
58413;DHT22;44209;52.952;6.790;2023-08-01T08:35:20;16.30;99.90
58413;DHT22;44209;52.952;6.790;2023-08-01T08:37:45;16.20;99.90
58413;DHT22;44209;52.952;6.790;2023-08-01T08:40:12;16.20;99.90
58413;DHT22;44209;52.952;6.790;2023-08-01T08:42:39;16.20;99.90
58413;DHT22;44209;52.952;6.790;2023-08-01T08:45:06;16.20;99.90
58413;DHT22;44209;52.952;6.790;2023-08-01T08:47:36;16.10;99.90
58413;DHT22;44209;52.952;6.790;2023-08-01T08:50:02;16.10;99.90
58413;DHT22;44209;52.952;6.790;2023-08-01T08:52:29;16.10;99.90
58413;DHT22;44209;52.952;6.790;2023-08-01T08:54:56;16.10;99.90
58413;DHT22;44209;52.952;6.790;2023-08-01T08:57:22;16.10;99.90
58413;DHT22;44209;52.952;6.790;2023-08-01T08:59:49;16.10;99.90
58413;DHT22;44209;52.952;6.790;2023-08-01T09:02:16;16.10;99.90
58413;DHT22;44209;52.952;6.790;2023-08-01T09:04:42;16.10;99.90
58413;DHT22;44209;52.952;6.790;2023-08-01T09:07:10;16.10;99.90
58413;DHT22;44209;52.952;6.790;2023-08-01T09:09:37;16.20;99.90
58413;DHT22;44209;52.952;6.790;2023-08-01T09:12:03;16.20;99.90
58413;DHT22;44209;52.952;6.790;2023-08-01T09:14:29;16.20;99.90
58413;DHT22;44209;52.952;6.790;2023-08-01T09:17:06;16.20;99.90
58413;DHT22;44209;52.952;6.790;2023-08-01T09:19:33;16.20;99.90
58413;DHT22;44209;52.952;6.790;2023-08-01T09:21:58;16.30;99.90
58413;DHT22;44209;52.952;6.790;2023-08-01T09:24:24;16.40;99.90
58413;DHT22;44209;52.952;6.790;2023-08-01T09:26:50;16.40;99.90
58413;DHT22;44209;52.952;6.790;2023-08-01T09:29:20;16.40;99.90
58413;DHT22;44209;52.952;6.790;2023-08-01T09:31:46;16.40;99.90
58413;DHT22;44209;52.952;6.790;2023-08-01T09:34:20;16.30;99.90
58413;DHT22;44209;52.952;6.790;2023-08-01T09:36:47;16.30;99.90
58413;DHT22;44209;52.952;6.790;2023-08-01T09:39:20;16.20;99.90
58413;DHT22;44209;52.952;6.790;2023-08-01T09:41:54;16.30;99.90
58413;DHT22;44209;52.952;6.790;2023-08-01T09:44:20;16.30;99.90
58413;DHT22;44209;52.952;6.790;2023-08-01T09:47:00;16.40;99.90
58413;DHT22;44209;52.952;6.790;2023-08-01T09:49:27;16.40;99.90
58413;DHT22;44209;52.952;6.790;2023-08-01T09:51:53;16.40;99.90
58413;DHT22;44209;52.952;6.790;2023-08-01T09:54:20;16.40;99.90
58413;DHT22;44209;52.952;6.790;2023-08-01T09:56:48;16.40;99.90
58413;DHT22;44209;52.952;6.790;2023-08-01T09:59:24;16.50;99.90
58413;DHT22;44209;52.952;6.790;2023-08-01T10:01:52;16.70;99.90
58413;DHT22;44209;52.952;6.790;2023-08-01T10:04:24;16.80;99.90
58413;DHT22;44209;52.952;6.790;2023-08-01T10:06:58;16.90;99.90
58413;DHT22;44209;52.952;6.790;2023-08-01T10:09:25;16.90;99.90
58413;DHT22;44209;52.952;6.790;2023-08-01T10:11:51;17.00;99.90
58413;DHT22;44209;52.952;6.790;2023-08-01T10:14:19;17.10;99.90
58413;DHT22;44209;52.952;6.790;2023-08-01T10:16:45;17.30;99.90
58413;DHT22;44209;52.952;6.790;2023-08-01T10:19:13;17.40;99.90
58413;DHT22;44209;52.952;6.790;2023-08-01T10:21:40;17.50;99.90
58413;DHT22;44209;52.952;6.790;2023-08-01T10:24:06;17.50;99.90
58413;DHT22;44209;52.952;6.790;2023-08-01T10:26:32;17.60;99.90
58413;DHT22;44209;52.952;6.790;2023-08-01T10:28:58;17.60;99.90
58413;DHT22;44209;52.952;6.790;2023-08-01T10:31:25;17.70;99.90
58413;DHT22;44209;52.952;6.790;2023-08-01T10:33:51;17.60;99.90
58413;DHT22;44209;52.952;6.790;2023-08-01T10:36:19;17.70;99.90
58413;DHT22;44209;52.952;6.790;2023-08-01T10:38:52;17.90;99.90
58413;DHT22;44209;52.952;6.790;2023-08-01T10:41:31;18.00;99.90
58413;DHT22;44209;52.952;6.790;2023-08-01T10:44:11;18.10;99.90
58413;DHT22;44209;52.952;6.790;2023-08-01T10:49:16;18.30;99.90
58413;DHT22;44209;52.952;6.790;2023-08-01T10:51:43;18.30;99.90
58413;DHT22;44209;52.952;6.790;2023-08-01T10:54:23;18.20;99.90
58413;DHT22;44209;52.952;6.790;2023-08-01T10:56:52;17.90;99.90
58413;DHT22;44209;52.952;6.790;2023-08-01T10:59:19;17.80;99.90
58413;DHT22;44209;52.952;6.790;2023-08-01T11:01:57;17.70;99.90
58413;DHT22;44209;52.952;6.790;2023-08-01T11:04:24;17.60;99.90
58413;DHT22;44209;52.952;6.790;2023-08-01T11:06:52;17.50;99.90
58413;DHT22;44209;52.952;6.790;2023-08-01T11:09:22;17.40;99.90
58413;DHT22;44209;52.952;6.790;2023-08-01T11:11:57;17.30;99.90
58413;DHT22;44209;52.952;6.790;2023-08-01T11:14:27;17.30;99.90
58413;DHT22;44209;52.952;6.790;2023-08-01T11:16:57;17.50;99.90
58413;DHT22;44209;52.952;6.790;2023-08-01T11:19:29;17.70;99.90
58413;DHT22;44209;52.952;6.790;2023-08-01T11:21:57;17.90;99.90
58413;DHT22;44209;52.952;6.790;2023-08-01T11:24:24;18.00;99.90
58413;DHT22;44209;52.952;6.790;2023-08-01T11:26:51;18.20;99.90
58413;DHT22;44209;52.952;6.790;2023-08-01T11:29:19;18.20;99.90
58413;DHT22;44209;52.952;6.790;2023-08-01T11:31:59;18.20;99.90
58413;DHT22;44209;52.952;6.790;2023-08-01T11:34:25;18.10;99.90
58413;DHT22;44209;52.952;6.790;2023-08-01T11:36:52;17.90;99.90
58413;DHT22;44209;52.952;6.790;2023-08-01T11:39:18;17.80;99.90
58413;DHT22;44209;52.952;6.790;2023-08-01T11:41:45;17.60;99.90
58413;DHT22;44209;52.952;6.790;2023-08-01T11:44:11;17.50;99.90
58413;DHT22;44209;52.952;6.790;2023-08-01T11:46:38;17.60;99.90
58413;DHT22;44209;52.952;6.790;2023-08-01T11:49:06;17.90;99.90
58413;DHT22;44209;52.952;6.790;2023-08-01T11:51:39;18.20;99.90
58413;DHT22;44209;52.952;6.790;2023-08-01T11:54:05;18.50;99.90
58413;DHT22;44209;52.952;6.790;2023-08-01T11:56:31;18.70;99.90
58413;DHT22;44209;52.952;6.790;2023-08-01T11:58:57;18.70;99.90
58413;DHT22;44209;52.952;6.790;2023-08-01T12:01:24;18.60;99.90
58413;DHT22;44209;52.952;6.790;2023-08-01T12:03:51;18.40;99.90
58413;DHT22;44209;52.952;6.790;2023-08-01T12:06:22;18.30;99.90
58413;DHT22;44209;52.952;6.790;2023-08-01T12:08:50;18.10;99.90
58413;DHT22;44209;52.952;6.790;2023-08-01T12:11:24;18.00;99.90
58413;DHT22;44209;52.952;6.790;2023-08-01T12:14:17;17.90;99.90
58413;DHT22;44209;52.952;6.790;2023-08-01T12:16:45;17.80;99.90
58413;DHT22;44209;52.952;6.790;2023-08-01T12:19:12;17.70;99.90
58413;DHT22;44209;52.952;6.790;2023-08-01T12:21:41;17.70;99.90
58413;DHT22;44209;52.952;6.790;2023-08-01T12:24:07;17.50;99.90
58413;DHT22;44209;52.952;6.790;2023-08-01T12:26:33;17.40;99.90
58413;DHT22;44209;52.952;6.790;2023-08-01T12:28:58;17.50;99.90
58413;DHT22;44209;52.952;6.790;2023-08-01T12:31:24;17.70;99.90
58413;DHT22;44209;52.952;6.790;2023-08-01T12:33:50;17.90;99.90
58413;DHT22;44209;52.952;6.790;2023-08-01T12:36:17;18.30;99.90
58413;DHT22;44209;52.952;6.790;2023-08-01T12:38:43;18.40;99.90
58413;DHT22;44209;52.952;6.790;2023-08-01T12:41:09;18.70;99.90
58413;DHT22;44209;52.952;6.790;2023-08-01T12:43:35;18.80;99.90
58413;DHT22;44209;52.952;6.790;2023-08-01T12:46:01;18.90;99.90
58413;DHT22;44209;52.952;6.790;2023-08-01T12:48:27;19.00;99.90
58413;DHT22;44209;52.952;6.790;2023-08-01T12:50:53;18.90;99.90
58413;DHT22;44209;52.952;6.790;2023-08-01T12:53:20;18.70;99.90
58413;DHT22;44209;52.952;6.790;2023-08-01T12:55:48;18.60;99.90
58413;DHT22;44209;52.952;6.790;2023-08-01T12:58:14;18.40;99.90
58413;DHT22;44209;52.952;6.790;2023-08-01T13:00:41;18.30;99.90
58413;DHT22;44209;52.952;6.790;2023-08-01T13:03:07;18.30;99.90
58413;DHT22;44209;52.952;6.790;2023-08-01T13:05:38;18.30;99.90
58413;DHT22;44209;52.952;6.790;2023-08-01T13:08:04;18.30;99.90
58413;DHT22;44209;52.952;6.790;2023-08-01T13:10:34;18.30;99.90
58413;DHT22;44209;52.952;6.790;2023-08-01T13:13:01;18.30;99.90
58413;DHT22;44209;52.952;6.790;2023-08-01T13:15:28;18.30;99.90
58413;DHT22;44209;52.952;6.790;2023-08-01T13:17:54;18.50;99.90
58413;DHT22;44209;52.952;6.790;2023-08-01T13:20:20;18.80;99.90
58413;DHT22;44209;52.952;6.790;2023-08-01T13:22:48;18.80;99.90
58413;DHT22;44209;52.952;6.790;2023-08-01T13:25:14;18.90;99.90
58413;DHT22;44209;52.952;6.790;2023-08-01T13:27:40;18.90;99.90
58413;DHT22;44209;52.952;6.790;2023-08-01T13:30:07;19.20;99.90
58413;DHT22;44209;52.952;6.790;2023-08-01T13:32:33;19.30;99.90
58413;DHT22;44209;52.952;6.790;2023-08-01T13:34:59;19.50;99.90
58413;DHT22;44209;52.952;6.790;2023-08-01T13:37:25;19.60;99.90
58413;DHT22;44209;52.952;6.790;2023-08-01T13:39:51;19.60;99.90
58413;DHT22;44209;52.952;6.790;2023-08-01T13:42:17;19.70;99.90
58413;DHT22;44209;52.952;6.790;2023-08-01T13:44:42;19.90;99.90
58413;DHT22;44209;52.952;6.790;2023-08-01T13:47:08;20.00;99.90
58413;DHT22;44209;52.952;6.790;2023-08-01T13:49:34;19.90;99.90
58413;DHT22;44209;52.952;6.790;2023-08-01T13:52:00;19.80;99.90
58413;DHT22;44209;52.952;6.790;2023-08-01T13:54:26;19.70;99.90
58413;DHT22;44209;52.952;6.790;2023-08-01T13:56:52;19.90;99.90
58413;DHT22;44209;52.952;6.790;2023-08-01T13:59:19;19.90;99.90
58413;DHT22;44209;52.952;6.790;2023-08-01T14:01:46;20.00;99.90
58413;DHT22;44209;52.952;6.790;2023-08-01T14:04:11;20.10;99.90
58413;DHT22;44209;52.952;6.790;2023-08-01T14:06:42;20.00;99.90
58413;DHT22;44209;52.952;6.790;2023-08-01T14:09:08;19.90;99.90
58413;DHT22;44209;52.952;6.790;2023-08-01T14:11:35;19.70;99.90
58413;DHT22;44209;52.952;6.790;2023-08-01T14:14:01;19.60;99.90
58413;DHT22;44209;52.952;6.790;2023-08-01T14:16:27;19.40;99.90
58413;DHT22;44209;52.952;6.790;2023-08-01T14:18:53;19.30;99.90
58413;DHT22;44209;52.952;6.790;2023-08-01T14:21:19;19.20;99.90
58413;DHT22;44209;52.952;6.790;2023-08-01T14:23:45;19.20;99.90
58413;DHT22;44209;52.952;6.790;2023-08-01T14:26:11;19.10;99.90
58413;DHT22;44209;52.952;6.790;2023-08-01T14:28:36;19.10;99.90
58413;DHT22;44209;52.952;6.790;2023-08-01T14:31:03;18.90;99.90
58413;DHT22;44209;52.952;6.790;2023-08-01T14:33:29;18.80;99.90
58413;DHT22;44209;52.952;6.790;2023-08-01T14:35:56;18.70;99.90
58413;DHT22;44209;52.952;6.790;2023-08-01T14:38:22;18.70;99.90
58413;DHT22;44209;52.952;6.790;2023-08-01T14:40:48;18.70;99.90
58413;DHT22;44209;52.952;6.790;2023-08-01T14:43:14;18.90;99.90
58413;DHT22;44209;52.952;6.790;2023-08-01T14:45:40;19.00;99.90
58413;DHT22;44209;52.952;6.790;2023-08-01T14:48:07;18.90;99.90
58413;DHT22;44209;52.952;6.790;2023-08-01T14:50:33;18.90;99.90
58413;DHT22;44209;52.952;6.790;2023-08-01T14:53:00;18.90;99.90
58413;DHT22;44209;52.952;6.790;2023-08-01T14:55:27;18.80;99.90
58413;DHT22;44209;52.952;6.790;2023-08-01T14:57:52;18.70;99.90
58413;DHT22;44209;52.952;6.790;2023-08-01T15:00:18;18.70;99.90
58413;DHT22;44209;52.952;6.790;2023-08-01T15:02:44;18.60;99.90
58413;DHT22;44209;52.952;6.790;2023-08-01T15:05:12;18.70;99.90
58413;DHT22;44209;52.952;6.790;2023-08-01T15:07:38;18.90;99.90
58413;DHT22;44209;52.952;6.790;2023-08-01T15:10:04;19.00;99.90
58413;DHT22;44209;52.952;6.790;2023-08-01T15:12:29;19.20;99.90
58413;DHT22;44209;52.952;6.790;2023-08-01T15:14:56;19.30;99.90
58413;DHT22;44209;52.952;6.790;2023-08-01T15:17:23;19.40;99.90
58413;DHT22;44209;52.952;6.790;2023-08-01T15:19:49;19.50;99.90
58413;DHT22;44209;52.952;6.790;2023-08-01T15:22:15;19.50;99.90
58413;DHT22;44209;52.952;6.790;2023-08-01T15:24:42;19.60;99.90
58413;DHT22;44209;52.952;6.790;2023-08-01T15:27:07;19.60;99.90
58413;DHT22;44209;52.952;6.790;2023-08-01T15:29:33;19.50;99.90